Time;durP1;ratioP1;P1;durP2;ratioP2;P2;SDS_P1;SDS_P2;PMS_P1;PMS_P2;Temp;Humidity;BMP_temperature;BMP_pressure;BME280_temperature;BME280_humidity;BME280_pressure;Samples;Min_cycle;Max_cycle;Signal;HPM_P1;HPM_P2
2023/03/31 00:02:13;;;;;;;5.57;1.47;;;12.30;99.90;;;;;;5022588;28;20497;-70
2023/03/31 00:04:51;;;;;;;3.60;1.50;;;12.30;99.90;;;;;;5055954;28;20327;-71
2023/03/31 00:07:20;;;;;;;1.80;0.93;;;12.20;99.90;;;;;;5023595;28;20461;-71
2023/03/31 00:09:53;;;;;;;2.50;1.53;;;12.10;99.90;;;;;;5004055;28;20459;-71
2023/03/31 00:12:20;;;;;;;2.53;1.23;;;12.00;99.90;;;;;;5045359;28;20465;-71
2023/03/31 00:14:46;;;;;;;2.43;1.60;;;12.00;99.90;;;;;;5028728;28;20451;-71
2023/03/31 00:17:12;;;;;;;1.63;1.13;;;12.10;99.90;;;;;;5044687;28;20523;-71
2023/03/31 00:19:39;;;;;;;3.13;1.50;;;12.20;99.90;;;;;;5012322;28;20282;-71
2023/03/31 00:22:05;;;;;;;3.70;2.13;;;12.20;99.90;;;;;;5044800;28;21018;-71
2023/03/31 00:24:31;;;;;;;5.80;1.53;;;12.10;99.90;;;;;;5063754;28;20471;-71
2023/03/31 00:26:59;;;;;;;4.87;1.73;;;11.90;99.90;;;;;;5030448;28;20472;-70
2023/03/31 00:29:25;;;;;;;1.23;1.13;;;11.80;99.90;;;;;;5030793;28;20466;-71
2023/03/31 00:31:51;;;;;;;1.47;1.10;;;11.80;99.90;;;;;;5015033;28;20516;-70
2023/03/31 00:34:17;;;;;;;3.87;1.57;;;11.80;99.90;;;;;;5030165;28;20453;-68
2023/03/31 00:36:48;;;;;;;2.70;1.97;;;11.90;99.90;;;;;;5030342;28;20237;-71
2023/03/31 00:39:17;;;;;;;2.50;1.50;;;11.90;99.90;;;;;;5061387;28;20221;-71
2023/03/31 00:41:44;;;;;;;3.47;1.40;;;12.00;99.90;;;;;;5029021;28;20990;-71
2023/03/31 00:44:23;;;;;;;1.63;1.43;;;12.00;99.90;;;;;;5016976;28;20477;-70
2023/03/31 00:46:51;;;;;;;3.27;1.47;;;12.10;99.90;;;;;;5009115;28;20473;-70
2023/03/31 00:49:20;;;;;;;3.03;1.13;;;12.20;99.90;;;;;;4996254;28;20537;-70
2023/03/31 00:51:49;;;;;;;4.30;1.33;;;12.20;99.90;;;;;;5011167;28;20507;-71
2023/03/31 00:54:14;;;;;;;2.20;1.27;;;12.20;99.90;;;;;;5028230;28;20470;-71
2023/03/31 00:56:44;;;;;;;3.33;1.90;;;12.30;99.90;;;;;;5025883;28;20477;-70
2023/03/31 00:59:12;;;;;;;2.17;1.30;;;12.20;99.90;;;;;;5031162;28;20223;-71
2023/03/31 01:01:41;;;;;;;4.63;1.50;;;12.20;99.90;;;;;;5023512;28;20497;-72
2023/03/31 01:04:08;;;;;;;2.43;1.67;;;12.30;99.90;;;;;;5022600;28;20882;-71
2023/03/31 01:06:45;;;;;;;3.43;1.60;;;12.30;99.90;;;;;;5013063;28;20439;-70
2023/03/31 01:09:15;;;;;;;1.50;1.27;;;12.30;99.90;;;;;;5041605;28;20500;-71
2023/03/31 01:11:45;;;;;;;1.70;1.53;;;12.30;99.90;;;;;;5008647;28;20453;-71
2023/03/31 01:14:11;;;;;;;1.57;1.30;;;12.30;99.90;;;;;;5017173;28;20529;-71
2023/03/31 01:16:38;;;;;;;1.80;1.43;;;12.30;99.90;;;;;;5031893;28;21015;-71
2023/03/31 01:19:09;;;;;;;2.90;1.20;;;12.30;99.90;;;;;;5041279;28;20470;-71
2023/03/31 01:21:58;;;;;;;2.20;1.60;;;12.30;99.90;;;;;;5030331;28;20978;-71
2023/03/31 01:24:30;;;;;;;1.47;1.33;;;12.20;99.90;;;;;;5024562;28;20477;-71
2023/03/31 01:27:21;;;;;;;2.37;1.57;;;12.20;99.90;;;;;;5029978;28;20453;-70
2023/03/31 01:30:33;;;;;;;2.63;1.33;;;12.20;99.90;;;;;;5034513;28;20454;-71
2023/03/31 01:33:15;;;;;;;4.00;1.50;;;12.10;99.90;;;;;;4929901;29;21294;-71
2023/03/31 01:35:45;;;;;;;2.07;1.50;;;12.10;99.90;;;;;;4935676;29;20466;-71
2023/03/31 01:38:39;;;;;;;2.87;1.50;;;12.10;99.90;;;;;;4985553;28;20475;-70
2023/03/31 01:41:15;;;;;;;1.20;1.10;;;12.10;99.90;;;;;;5017327;28;20591;-71
2023/03/31 01:43:47;;;;;;;3.23;1.13;;;12.10;99.90;;;;;;5037848;28;21055;-70
2023/03/31 01:46:27;;;;;;;1.73;1.40;;;11.90;99.90;;;;;;5023897;28;20480;-70
2023/03/31 01:49:01;;;;;;;1.33;1.23;;;11.80;99.90;;;;;;5037482;28;20465;-71
2023/03/31 01:51:50;;;;;;;1.93;1.57;;;11.80;99.90;;;;;;5026332;28;20458;-71
2023/03/31 01:54:38;;;;;;;2.10;1.33;;;11.90;99.90;;;;;;5007234;28;20466;-70
2023/03/31 01:57:16;;;;;;;1.97;1.40;;;12.00;99.90;;;;;;5038514;28;20535;-70
2023/03/31 02:00:08;;;;;;;3.13;1.47;;;12.00;99.90;;;;;;5054326;28;20478;-70
2023/03/31 02:03:04;;;;;;;2.80;1.30;;;12.00;99.90;;;;;;5042982;28;20468;-69
2023/03/31 02:05:36;;;;;;;3.20;1.63;;;11.90;99.90;;;;;;5030039;28;21034;-70
2023/03/31 02:08:05;;;;;;;2.57;1.30;;;11.90;99.90;;;;;;5025894;28;20463;-71
2023/03/31 02:10:32;;;;;;;2.50;1.60;;;11.90;99.90;;;;;;5044229;28;20991;-70
2023/03/31 02:13:00;;;;;;;1.03;1.03;;;11.80;99.90;;;;;;5059966;28;20445;-71
2023/03/31 02:15:35;;;;;;;1.70;1.20;;;11.80;99.90;;;;;;5009552;28;20483;-71
2023/03/31 02:18:04;;;;;;;4.33;1.90;;;11.70;99.90;;;;;;5040862;28;20932;-71
2023/03/31 02:20:32;;;;;;;7.40;1.57;;;11.50;99.90;;;;;;5041047;28;20454;-70
2023/03/31 02:22:58;;;;;;;1.53;1.20;;;11.30;99.90;;;;;;5014437;28;20969;-70
2023/03/31 02:25:32;;;;;;;3.80;1.77;;;11.30;99.90;;;;;;4993942;28;21065;-71
2023/03/31 02:28:07;;;;;;;1.53;1.17;;;11.20;99.90;;;;;;4999081;28;20450;-71
2023/03/31 02:30:59;;;;;;;1.80;1.50;;;11.10;99.90;;;;;;5023644;28;20460;-71
2023/03/31 02:33:25;;;;;;;2.40;1.30;;;11.20;99.90;;;;;;5028203;28;20482;-70
2023/03/31 02:35:51;;;;;;;3.37;1.30;;;11.10;99.90;;;;;;5029186;28;20983;-71
2023/03/31 02:38:17;;;;;;;3.70;1.10;;;11.10;99.90;;;;;;5025552;28;20246;-71
2023/03/31 02:40:43;;;;;;;3.03;1.27;;;11.10;99.90;;;;;;5023654;28;20455;-70
2023/03/31 02:43:08;;;;;;;4.13;1.33;;;11.20;99.90;;;;;;5017340;28;21043;-70
2023/03/31 02:45:42;;;;;;;3.40;1.30;;;11.20;99.90;;;;;;5010115;28;20374;-71
2023/03/31 02:48:42;;;;;;;2.23;1.23;;;11.10;99.90;;;;;;5023626;28;20246;-71
2023/03/31 02:51:23;;;;;;;3.13;1.20;;;11.20;99.90;;;;;;5019251;28;20460;-71
2023/03/31 02:54:17;;;;;;;3.03;1.17;;;11.10;99.90;;;;;;5023598;28;20839;-70
2023/03/31 02:56:59;;;;;;;2.60;0.77;;;11.20;99.90;;;;;;5000530;28;20819;-71
2023/03/31 02:59:43;;;;;;;1.90;1.20;;;11.20;99.90;;;;;;5023664;28;20518;-71
2023/03/31 03:02:13;;;;;;;1.73;1.07;;;11.30;99.90;;;;;;5006888;28;20456;-70
2023/03/31 03:05:01;;;;;;;1.90;1.03;;;11.20;99.90;;;;;;5022542;28;20450;-70
2023/03/31 03:07:36;;;;;;;2.97;1.20;;;11.20;99.90;;;;;;5028665;28;20464;-69
2023/03/31 03:10:02;;;;;;;1.83;0.90;;;11.30;99.90;;;;;;5029818;28;20813;-71
2023/03/31 03:12:50;;;;;;;2.50;0.90;;;11.10;99.90;;;;;;5030709;28;20471;-71
2023/03/31 03:15:31;;;;;;;5.27;1.53;;;11.20;99.90;;;;;;5012664;28;20225;-69
2023/03/31 03:17:57;;;;;;;8.07;1.70;;;11.20;99.90;;;;;;5024214;28;20541;-71
2023/03/31 03:20:23;;;;;;;4.87;1.10;;;11.30;99.90;;;;;;5051965;28;20608;-70
2023/03/31 03:22:49;;;;;;;4.10;1.63;;;11.40;99.90;;;;;;5044671;28;20224;-72
2023/03/31 03:25:16;;;;;;;1.80;1.00;;;11.40;99.90;;;;;;5027038;28;20460;-71
2023/03/31 03:27:43;;;;;;;1.70;1.03;;;11.50;99.90;;;;;;5021321;28;20318;-71
2023/03/31 03:30:11;;;;;;;2.50;1.60;;;11.50;99.90;;;;;;5037823;28;20447;-72
2023/03/31 03:32:37;;;;;;;2.83;0.77;;;11.50;99.90;;;;;;5032393;28;20576;-71
2023/03/31 03:35:05;;;;;;;2.13;0.87;;;11.50;99.90;;;;;;5027312;28;20553;-72
2023/03/31 03:37:30;;;;;;;1.23;0.90;;;11.40;99.90;;;;;;5048352;28;20452;-71
2023/03/31 03:39:56;;;;;;;3.67;1.10;;;11.50;99.90;;;;;;5048237;28;20455;-71
2023/03/31 03:42:22;;;;;;;1.27;1.07;;;11.50;99.90;;;;;;5024057;28;20270;-71
2023/03/31 03:44:48;;;;;;;1.57;1.27;;;11.50;99.90;;;;;;5015949;28;20650;-72
2023/03/31 03:47:14;;;;;;;1.43;0.83;;;11.60;99.90;;;;;;5009021;28;20702;-71
2023/03/31 03:49:39;;;;;;;3.70;1.20;;;11.60;99.90;;;;;;5026079;28;20231;-71
2023/03/31 03:52:05;;;;;;;2.63;1.10;;;11.60;99.90;;;;;;5025640;28;20503;-72
2023/03/31 03:54:31;;;;;;;2.87;1.53;;;11.60;99.90;;;;;;5043428;28;20644;-70
2023/03/31 03:56:57;;;;;;;5.10;1.20;;;11.60;99.90;;;;;;5029308;28;20244;-69
2023/03/31 03:59:23;;;;;;;2.30;1.20;;;11.60;99.90;;;;;;5021038;28;20216;-71
2023/03/31 04:01:49;;;;;;;3.97;1.10;;;11.60;99.90;;;;;;5002946;28;20704;-71
2023/03/31 04:04:14;;;;;;;4.83;1.40;;;11.60;99.90;;;;;;5014507;28;20609;-71
2023/03/31 04:06:41;;;;;;;1.27;1.10;;;11.60;99.90;;;;;;5028264;28;20455;-69
2023/03/31 04:09:06;;;;;;;1.20;1.10;;;11.60;99.90;;;;;;5002380;28;20217;-70
2023/03/31 04:11:32;;;;;;;1.60;0.93;;;11.60;99.90;;;;;;5028540;28;20468;-71
2023/03/31 04:13:57;;;;;;;2.20;1.30;;;11.60;99.90;;;;;;5026568;28;20238;-71
2023/03/31 04:16:24;;;;;;;3.70;1.20;;;11.50;99.90;;;;;;5033036;28;20225;-71
2023/03/31 04:18:55;;;;;;;1.27;1.00;;;11.50;99.90;;;;;;5001277;28;20218;-70
2023/03/31 04:21:21;;;;;;;2.50;1.20;;;11.60;99.90;;;;;;5019202;28;20473;-71
2023/03/31 04:23:49;;;;;;;3.30;1.77;;;11.60;99.90;;;;;;5020318;28;20468;-71
2023/03/31 04:26:17;;;;;;;2.33;1.40;;;11.60;99.90;;;;;;5023099;28;20493;-70
2023/03/31 04:28:49;;;;;;;1.83;1.70;;;11.60;99.90;;;;;;5015626;28;20480;-71
2023/03/31 04:31:23;;;;;;;1.50;1.27;;;11.60;99.90;;;;;;5014624;28;20509;-70
2023/03/31 04:33:50;;;;;;;2.03;1.63;;;11.60;99.90;;;;;;5021223;28;20469;-71
2023/03/31 04:36:19;;;;;;;2.10;1.60;;;11.60;99.90;;;;;;5036807;28;20511;-71
2023/03/31 04:38:49;;;;;;;3.13;1.60;;;11.50;99.90;;;;;;5018474;28;20467;-71
2023/03/31 04:41:17;;;;;;;3.70;1.93;;;11.50;99.90;;;;;;5017807;28;20508;-70
2023/03/31 04:43:43;;;;;;;3.03;1.17;;;11.50;99.90;;;;;;5021866;28;20968;-71
2023/03/31 04:46:09;;;;;;;1.93;1.20;;;11.60;99.90;;;;;;5022295;28;20605;-70
2023/03/31 04:48:35;;;;;;;6.73;1.67;;;11.50;99.90;;;;;;5030573;28;20434;-72
2023/03/31 04:51:01;;;;;;;1.40;1.13;;;11.50;99.90;;;;;;5005339;28;20241;-71
2023/03/31 04:53:26;;;;;;;3.20;1.37;;;11.40;99.90;;;;;;5013759;28;20266;-71
2023/03/31 04:55:52;;;;;;;2.40;1.40;;;11.50;99.90;;;;;;5042883;28;20478;-71
2023/03/31 04:58:18;;;;;;;2.70;1.63;;;11.50;99.90;;;;;;5022253;28;20241;-71
2023/03/31 05:00:43;;;;;;;4.13;1.47;;;11.40;99.90;;;;;;5022013;28;20240;-71
2023/03/31 05:03:09;;;;;;;3.67;1.23;;;11.30;99.90;;;;;;4998563;28;20264;-69
2023/03/31 05:05:36;;;;;;;5.17;1.20;;;11.40;99.90;;;;;;5019098;28;20229;-71
2023/03/31 05:08:02;;;;;;;1.97;1.10;;;11.50;99.90;;;;;;5021305;28;20217;-70
2023/03/31 05:10:28;;;;;;;2.73;1.10;;;11.50;99.90;;;;;;5003499;28;20831;-71
2023/03/31 05:12:54;;;;;;;1.20;1.10;;;11.50;99.90;;;;;;5022172;28;20532;-71
2023/03/31 05:15:20;;;;;;;1.53;1.27;;;11.50;99.90;;;;;;5015422;28;20509;-71
2023/03/31 05:17:46;;;;;;;2.00;1.80;;;11.50;99.90;;;;;;5022587;28;20228;-68
2023/03/31 05:20:12;;;;;;;1.53;1.20;;;11.50;99.90;;;;;;5025554;28;20475;-70
2023/03/31 05:22:38;;;;;;;1.70;1.00;;;11.50;99.90;;;;;;5028543;28;20225;-71
2023/03/31 05:25:06;;;;;;;1.23;1.10;;;11.50;99.90;;;;;;5038327;28;20480;-71
2023/03/31 05:27:32;;;;;;;2.90;1.33;;;11.50;99.90;;;;;;4990858;28;20833;-70
2023/03/31 05:29:58;;;;;;;2.47;1.20;;;11.60;99.90;;;;;;5038599;28;21006;-70
2023/03/31 05:32:25;;;;;;;3.73;1.30;;;11.60;99.90;;;;;;5016376;28;20474;-71
2023/03/31 05:34:51;;;;;;;1.87;1.40;;;11.60;99.90;;;;;;5013579;28;20226;-71
2023/03/31 05:37:20;;;;;;;3.57;1.50;;;11.60;99.90;;;;;;5017427;28;20553;-70
2023/03/31 05:39:45;;;;;;;5.60;1.10;;;11.60;99.90;;;;;;5023370;28;20490;-70
2023/03/31 05:42:11;;;;;;;1.53;1.33;;;11.60;99.90;;;;;;5041438;28;20571;-69
2023/03/31 05:44:37;;;;;;;7.27;1.60;;;11.60;99.90;;;;;;5003110;28;20241;-70
2023/03/31 05:47:03;;;;;;;5.30;1.90;;;11.60;99.90;;;;;;5038063;28;20328;-70
2023/03/31 05:49:28;;;;;;;2.50;1.27;;;11.60;99.90;;;;;;5014831;28;20325;-71
2023/03/31 05:51:55;;;;;;;2.40;1.30;;;11.60;99.90;;;;;;5020093;28;20225;-70
2023/03/31 05:54:21;;;;;;;2.00;1.30;;;11.60;99.90;;;;;;4999804;28;20218;-70
2023/03/31 05:56:47;;;;;;;3.90;1.60;;;11.60;99.90;;;;;;5024178;28;20521;-71
2023/03/31 05:59:13;;;;;;;6.70;2.20;;;11.60;99.90;;;;;;5008415;28;20469;-70
2023/03/31 06:01:39;;;;;;;8.53;3.27;;;11.60;99.90;;;;;;5022857;28;20302;-71
2023/03/31 06:04:05;;;;;;;7.10;2.70;;;11.60;99.90;;;;;;5019365;28;20493;-70
2023/03/31 06:06:33;;;;;;;8.43;2.83;;;11.60;99.90;;;;;;5033720;28;20470;-71
2023/03/31 06:08:59;;;;;;;3.57;2.40;;;11.60;99.90;;;;;;5041208;28;20309;-71
2023/03/31 06:11:25;;;;;;;3.93;2.47;;;11.60;99.90;;;;;;5013959;28;20469;-71
2023/03/31 06:13:51;;;;;;;2.90;1.80;;;11.50;99.90;;;;;;5028929;28;20451;-71
2023/03/31 06:16:17;;;;;;;3.40;2.50;;;11.50;99.90;;;;;;5020574;28;20620;-70
2023/03/31 06:18:44;;;;;;;5.30;2.00;;;11.50;99.90;;;;;;5005432;28;20218;-71
2023/03/31 06:21:12;;;;;;;2.70;1.40;;;11.50;99.90;;;;;;5025926;28;20472;-69
2023/03/31 06:23:37;;;;;;;3.43;1.83;;;11.50;99.90;;;;;;5043892;28;20509;-70
2023/03/31 06:26:07;;;;;;;1.67;1.57;;;11.50;99.90;;;;;;5028492;28;20498;-71
2023/03/31 06:28:34;;;;;;;2.80;1.80;;;11.40;99.90;;;;;;5022660;28;20223;-70
2023/03/31 06:31:05;;;;;;;3.00;1.60;;;11.40;99.90;;;;;;5010733;28;20858;-70
2023/03/31 06:33:32;;;;;;;5.83;2.50;;;11.30;99.90;;;;;;5022153;28;20476;-70
2023/03/31 06:36:00;;;;;;;3.93;2.10;;;11.30;99.90;;;;;;5019425;28;20483;-71
2023/03/31 06:38:26;;;;;;;3.63;2.07;;;11.30;99.90;;;;;;5024958;28;20478;-70
2023/03/31 06:40:53;;;;;;;2.37;2.00;;;11.30;99.90;;;;;;5022424;28;20460;-71
2023/03/31 06:43:19;;;;;;;3.97;1.97;;;11.30;99.90;;;;;;5040967;28;20840;-70
2023/03/31 06:45:46;;;;;;;5.70;2.30;;;11.30;99.90;;;;;;5011312;28;20828;-71
2023/03/31 06:48:11;;;;;;;3.40;2.30;;;11.30;99.90;;;;;;5023985;28;20463;-69
2023/03/31 06:50:38;;;;;;;6.10;2.07;;;11.20;99.90;;;;;;5022244;28;20979;-71
2023/03/31 06:53:04;;;;;;;7.00;3.50;;;11.20;99.90;;;;;;5043030;28;20229;-71
2023/03/31 06:55:31;;;;;;;5.67;3.27;;;11.20;99.90;;;;;;5022717;28;20648;-70
2023/03/31 06:57:56;;;;;;;6.17;3.00;;;11.20;99.90;;;;;;5027208;28;20447;-71
2023/03/31 07:00:24;;;;;;;5.20;3.20;;;11.30;99.90;;;;;;5030788;28;20842;-72
2023/03/31 07:02:50;;;;;;;5.13;2.50;;;11.20;99.90;;;;;;5025677;28;20213;-71
2023/03/31 07:05:17;;;;;;;3.03;2.70;;;11.20;99.90;;;;;;5019868;28;20882;-71
2023/03/31 07:07:43;;;;;;;5.27;1.97;;;11.20;99.90;;;;;;5043835;28;20214;-72
2023/03/31 07:10:08;;;;;;;2.80;1.67;;;11.20;99.90;;;;;;5024762;28;20468;-71
2023/03/31 07:12:34;;;;;;;4.30;1.40;;;11.20;99.90;;;;;;5030810;28;20695;-71
2023/03/31 07:14:59;;;;;;;2.77;1.60;;;11.30;99.90;;;;;;5045593;28;20229;-71
2023/03/31 07:17:25;;;;;;;3.93;1.60;;;11.30;99.90;;;;;;5046593;28;20227;-70
2023/03/31 07:19:51;;;;;;;1.80;1.47;;;11.30;99.90;;;;;;5028658;28;20251;-71
2023/03/31 07:22:16;;;;;;;2.63;1.83;;;11.30;99.90;;;;;;5042260;28;20217;-69
2023/03/31 07:24:42;;;;;;;2.60;1.83;;;11.30;99.90;;;;;;5024734;28;20257;-71
2023/03/31 07:27:08;;;;;;;2.23;1.27;;;11.30;99.90;;;;;;5012901;28;20233;-70
2023/03/31 07:29:33;;;;;;;1.00;1.00;;;11.40;99.90;;;;;;5048185;28;20223;-70
2023/03/31 07:31:59;;;;;;;2.00;1.27;;;11.40;99.90;;;;;;5012240;28;20234;-71
2023/03/31 07:34:26;;;;;;;3.40;1.60;;;11.40;99.90;;;;;;5030009;28;20230;-70
2023/03/31 07:36:54;;;;;;;1.87;1.43;;;11.40;99.90;;;;;;5013284;28;20227;-71
2023/03/31 07:39:20;;;;;;;1.73;1.40;;;11.40;99.90;;;;;;5046067;28;21098;-71
2023/03/31 07:41:46;;;;;;;1.93;1.47;;;11.50;99.90;;;;;;5027597;28;20472;-70
2023/03/31 07:44:12;;;;;;;1.93;1.33;;;11.50;99.90;;;;;;5025600;28;20479;-70
2023/03/31 07:46:39;;;;;;;1.90;1.80;;;11.50;99.90;;;;;;5046821;28;20243;-70
2023/03/31 07:49:06;;;;;;;4.27;2.10;;;11.40;99.90;;;;;;5010240;28;20227;-71
2023/03/31 07:51:32;;;;;;;2.80;2.30;;;11.40;99.90;;;;;;5022759;28;20464;-71
2023/03/31 07:53:57;;;;;;;3.07;1.90;;;11.50;99.90;;;;;;5042912;28;20451;-71
2023/03/31 07:56:24;;;;;;;3.33;1.50;;;11.60;99.90;;;;;;5027048;28;20230;-71
2023/03/31 07:58:52;;;;;;;2.20;2.00;;;11.60;99.90;;;;;;5045418;28;20228;-71
2023/03/31 08:01:20;;;;;;;1.63;1.40;;;11.60;99.90;;;;;;5026187;28;20886;-70
2023/03/31 08:03:47;;;;;;;3.63;1.80;;;11.60;99.90;;;;;;5025346;28;20490;-70
2023/03/31 08:06:21;;;;;;;2.47;1.90;;;11.60;99.90;;;;;;5044013;28;21026;-70
2023/03/31 08:08:50;;;;;;;4.80;2.27;;;11.60;99.90;;;;;;5025664;28;20456;-71
2023/03/31 08:11:16;;;;;;;4.30;2.27;;;11.70;99.90;;;;;;5038375;28;20458;-69
2023/03/31 08:13:42;;;;;;;2.30;2.10;;;11.70;99.90;;;;;;5019054;28;20479;-71
2023/03/31 08:16:08;;;;;;;2.83;2.03;;;11.70;99.90;;;;;;5014896;28;20913;-70
2023/03/31 08:18:34;;;;;;;2.70;1.80;;;11.70;99.90;;;;;;5017277;28;20252;-71
2023/03/31 08:20:59;;;;;;;3.93;2.30;;;11.80;99.90;;;;;;5028448;28;20228;-71
2023/03/31 08:23:25;;;;;;;2.03;1.80;;;11.70;99.90;;;;;;5018392;28;20315;-70
2023/03/31 08:25:51;;;;;;;3.10;2.03;;;11.70;99.90;;;;;;4997651;28;20253;-71
2023/03/31 08:28:17;;;;;;;5.57;2.00;;;11.70;99.90;;;;;;5009449;28;20309;-71
2023/03/31 08:30:43;;;;;;;2.47;2.27;;;11.60;99.90;;;;;;5019706;28;20233;-71
2023/03/31 08:33:11;;;;;;;4.23;1.90;;;11.70;99.90;;;;;;5028751;28;20477;-69
2023/03/31 08:35:37;;;;;;;4.60;2.47;;;11.80;99.90;;;;;;5009779;28;20268;-71
2023/03/31 08:38:03;;;;;;;1.90;1.80;;;11.80;99.90;;;;;;5040842;28;20457;-70
2023/03/31 08:40:31;;;;;;;3.00;1.73;;;11.90;99.90;;;;;;5004063;28;20459;-70
2023/03/31 08:43:17;;;;;;;3.20;2.37;;;12.00;99.90;;;;;;5016156;28;20509;-69
2023/03/31 08:45:46;;;;;;;3.10;1.83;;;12.20;99.90;;;;;;5013493;28;21084;-72
2023/03/31 08:48:29;;;;;;;4.83;1.80;;;12.30;99.90;;;;;;5022464;28;20466;-69
2023/03/31 08:51:00;;;;;;;2.47;2.20;;;12.40;99.90;;;;;;5018183;28;20462;-70
2023/03/31 08:53:30;;;;;;;2.67;2.13;;;12.50;99.90;;;;;;5033609;28;20462;-71
2023/03/31 08:55:57;;;;;;;3.43;2.53;;;12.50;99.90;;;;;;5011206;28;20517;-71
2023/03/31 08:58:43;;;;;;;2.63;2.10;;;12.50;99.90;;;;;;5015470;28;20477;-71
2023/03/31 09:01:18;;;;;;;4.40;2.30;;;12.50;99.90;;;;;;5038052;28;20559;-71
2023/03/31 09:03:50;;;;;;;2.60;2.40;;;12.50;99.90;;;;;;5034876;28;20468;-71
2023/03/31 09:06:30;;;;;;;6.53;2.20;;;12.50;99.90;;;;;;5023390;28;21086;-71
2023/03/31 09:09:01;;;;;;;5.00;2.60;;;12.50;99.90;;;;;;5024770;28;20455;-71
2023/03/31 09:11:37;;;;;;;4.37;3.50;;;12.40;99.90;;;;;;5033496;28;20505;-71
2023/03/31 09:14:18;;;;;;;4.10;2.83;;;12.40;99.90;;;;;;5021299;28;20479;-71
2023/03/31 09:16:59;;;;;;;7.97;3.33;;;12.50;99.90;;;;;;5019224;28;20494;-71
2023/03/31 09:19:54;;;;;;;5.33;2.10;;;12.50;99.90;;;;;;5018232;28;20475;-71
2023/03/31 09:22:45;;;;;;;4.47;2.53;;;12.50;99.90;;;;;;5034138;28;20460;-70
2023/03/31 09:25:15;;;;;;;2.40;1.80;;;12.50;99.90;;;;;;5008976;28;20487;-71
2023/03/31 09:27:43;;;;;;;8.27;2.30;;;12.50;99.90;;;;;;5017680;28;20455;-70
2023/03/31 09:30:08;;;;;;;5.73;2.20;;;12.50;99.90;;;;;;5025903;28;20468;-70
2023/03/31 09:32:37;;;;;;;9.83;2.20;;;12.40;99.90;;;;;;5041359;28;20476;-71
2023/03/31 09:35:35;;;;;;;4.20;1.87;;;12.40;99.90;;;;;;5025777;28;20222;-71
2023/03/31 09:38:01;;;;;;;6.60;2.47;;;12.30;99.90;;;;;;4989786;28;20477;-70
2023/03/31 09:40:28;;;;;;;5.97;2.20;;;12.20;99.90;;;;;;5031474;28;20472;-71
2023/03/31 09:43:03;;;;;;;1.80;1.70;;;12.20;99.90;;;;;;5007461;28;20278;-71
2023/03/31 09:45:29;;;;;;;7.70;2.50;;;12.20;99.90;;;;;;5016783;28;20972;-71
2023/03/31 09:48:00;;;;;;;6.03;1.90;;;12.20;99.90;;;;;;5026493;28;20493;-72
2023/03/31 09:50:27;;;;;;;8.63;2.67;;;12.10;99.90;;;;;;5017124;28;20468;-71
2023/03/31 09:52:56;;;;;;;4.77;1.97;;;12.20;99.90;;;;;;5011141;28;20846;-71
2023/03/31 09:55:42;;;;;;;8.63;2.70;;;12.20;99.90;;;;;;5019698;28;20461;-71
2023/03/31 09:58:13;;;;;;;2.90;2.30;;;12.20;99.90;;;;;;5017012;28;20688;-72
2023/03/31 10:00:56;;;;;;;4.67;2.43;;;12.30;99.90;;;;;;5032882;28;20452;-71
2023/03/31 10:03:23;;;;;;;3.63;1.80;;;12.20;99.90;;;;;;5017794;28;20477;-71
2023/03/31 10:05:54;;;;;;;5.50;1.80;;;12.00;99.90;;;;;;5007294;28;20482;-70
2023/03/31 10:08:39;;;;;;;3.77;2.00;;;11.80;99.90;;;;;;5023577;28;20547;-71
2023/03/31 10:11:05;;;;;;;2.67;1.40;;;11.90;99.90;;;;;;5025379;28;20981;-71
2023/03/31 10:13:45;;;;;;;2.03;1.30;;;11.70;99.90;;;;;;5025936;28;20466;-71
2023/03/31 10:16:22;;;;;;;7.60;2.00;;;11.50;99.90;;;;;;5030963;28;20553;-69
2023/03/31 10:18:48;;;;;;;1.67;0.93;;;11.40;99.90;;;;;;5028843;28;20454;-71
2023/03/31 10:21:24;;;;;;;4.40;1.37;;;11.30;99.90;;;;;;5030826;28;20456;-71
2023/03/31 10:23:50;;;;;;;3.60;1.23;;;11.30;99.90;;;;;;5028862;28;20504;-71
2023/03/31 10:26:20;;;;;;;4.07;1.20;;;11.30;99.90;;;;;;5022271;28;20480;-70
2023/03/31 10:28:49;;;;;;;1.43;0.97;;;11.20;99.90;;;;;;5022770;28;20444;-70
2023/03/31 10:31:15;;;;;;;2.13;1.07;;;11.20;99.90;;;;;;5018908;28;20449;-71
2023/03/31 10:33:46;;;;;;;6.20;1.40;;;11.20;99.90;;;;;;5007377;28;20961;-71
2023/03/31 10:36:27;;;;;;;3.47;1.13;;;11.30;99.90;;;;;;5031644;28;20694;-72
2023/03/31 10:38:53;;;;;;;2.93;0.90;;;11.30;99.90;;;;;;5030500;28;20465;-71
2023/03/31 10:41:27;;;;;;;3.77;1.10;;;11.50;99.90;;;;;;5023725;28;20538;-70
2023/03/31 10:44:03;;;;;;;3.60;0.83;;;11.60;99.90;;;;;;5030103;28;20474;-71
2023/03/31 10:46:51;;;;;;;3.83;1.07;;;11.70;99.90;;;;;;5003680;28;20472;-71
2023/03/31 10:49:26;;;;;;;0.87;0.87;;;11.90;99.90;;;;;;5014839;28;20480;-71
2023/03/31 10:51:53;;;;;;;3.20;1.40;;;12.10;99.90;;;;;;5011955;28;20449;-70
2023/03/31 10:54:19;;;;;;;3.73;1.67;;;12.40;99.90;;;;;;5027677;28;20461;-70
2023/03/31 10:56:51;;;;;;;2.30;1.63;;;12.60;99.90;;;;;;5028075;28;20595;-72
2023/03/31 10:59:42;;;;;;;4.50;2.43;;;12.80;99.90;;;;;;5013078;28;20229;-71
2023/03/31 11:02:28;;;;;;;10.30;3.07;;;13.10;99.90;;;;;;5029336;28;20466;-71
2023/03/31 11:05:14;;;;;;;5.90;1.77;;;13.20;99.90;;;;;;4988219;28;20466;-70
2023/03/31 11:07:42;;;;;;;2.90;1.80;;;13.30;99.90;;;;;;5044703;28;20470;-70
2023/03/31 11:10:20;;;;;;;3.07;1.80;;;13.50;99.90;;;;;;5024231;28;20454;-71
2023/03/31 11:13:06;;;;;;;5.37;2.60;;;13.80;99.90;;;;;;5016577;28;20963;-71
2023/03/31 11:15:37;;;;;;;4.80;2.03;;;13.90;99.90;;;;;;5017956;28;20466;-72
2023/03/31 11:18:16;;;;;;;3.70;2.03;;;13.90;99.90;;;;;;5023670;28;20471;-71
2023/03/31 11:21:00;;;;;;;3.87;1.67;;;13.90;99.90;;;;;;5057417;28;20454;-71
2023/03/31 11:23:41;;;;;;;6.23;2.57;;;13.80;99.90;;;;;;5046882;28;20857;-71
2023/03/31 11:26:10;;;;;;;3.60;2.00;;;13.80;99.90;;;;;;5031657;28;20717;-71
2023/03/31 11:29:10;;;;;;;4.13;2.00;;;13.80;99.90;;;;;;5022463;28;20463;-71
2023/03/31 11:31:51;;;;;;;6.00;2.10;;;13.70;99.90;;;;;;5027480;28;21086;-72
2023/03/31 11:34:19;;;;;;;3.80;2.13;;;13.70;99.90;;;;;;5046742;28;20484;-72
2023/03/31 11:37:06;;;;;;;6.20;2.47;;;13.60;99.90;;;;;;5015656;28;20451;-70
2023/03/31 11:39:34;;;;;;;6.77;1.87;;;13.60;99.90;;;;;;5014625;28;20458;-71
2023/03/31 11:42:07;;;;;;;3.43;1.80;;;13.60;99.90;;;;;;5041387;28;20995;-73
2023/03/31 11:44:51;;;;;;;6.73;2.20;;;13.60;99.90;;;;;;5030292;28;20553;-71
2023/03/31 11:47:32;;;;;;;11.97;2.43;;;13.60;99.90;;;;;;5053259;28;20462;-71
2023/03/31 11:50:09;;;;;;;8.63;1.97;;;13.60;99.90;;;;;;5013713;28;20892;-71
2023/03/31 11:52:40;;;;;;;11.33;4.23;;;13.60;99.90;;;;;;5019571;28;20465;-72
2023/03/31 11:55:21;;;;;;;7.53;1.80;;;13.60;99.90;;;;;;5028182;28;20470;-71
2023/03/31 11:57:55;;;;;;;7.73;2.17;;;13.70;99.90;;;;;;5044923;28;20445;-69
2023/03/31 12:00:26;;;;;;;7.13;1.57;;;13.70;99.90;;;;;;5028555;28;20477;-70
2023/03/31 12:03:13;;;;;;;6.13;1.90;;;13.70;99.90;;;;;;5029333;28;20814;-71
2023/03/31 12:05:49;;;;;;;3.10;1.23;;;13.70;99.90;;;;;;5043072;28;20461;-71
2023/03/31 12:08:16;;;;;;;2.93;1.40;;;13.80;99.90;;;;;;5040210;28;20468;-71
2023/03/31 12:11:11;;;;;;;3.60;1.10;;;13.90;99.90;;;;;;5044662;28;20454;-71
2023/03/31 12:13:57;;;;;;;5.10;1.47;;;13.90;99.90;;;;;;4995227;28;20442;-71
2023/03/31 12:16:45;;;;;;;2.20;1.57;;;13.90;99.90;;;;;;5039148;28;20498;-71
2023/03/31 12:19:23;;;;;;;5.13;1.50;;;13.80;99.90;;;;;;5026633;28;20481;-71
2023/03/31 12:22:20;;;;;;;5.90;1.70;;;13.70;99.90;;;;;;5031335;28;20468;-72
2023/03/31 12:24:46;;;;;;;2.83;1.07;;;13.80;99.90;;;;;;5048009;28;20478;-72
2023/03/31 12:27:29;;;;;;;4.83;1.07;;;13.90;99.90;;;;;;5028080;28;20466;-70
2023/03/31 12:30:01;;;;;;;2.53;1.10;;;14.20;99.90;;;;;;5026338;28;20224;-71
2023/03/31 12:32:39;;;;;;;1.53;0.90;;;14.40;99.90;;;;;;5029904;28;20470;-71
2023/03/31 12:35:19;;;;;;;2.23;1.33;;;14.60;99.90;;;;;;5014102;28;20531;-71
2023/03/31 12:38:15;;;;;;;5.97;1.40;;;14.70;99.90;;;;;;5042212;28;20451;-70
2023/03/31 12:41:10;;;;;;;7.27;1.50;;;14.60;99.90;;;;;;5034178;28;20936;-70
2023/03/31 12:43:55;;;;;;;4.40;1.67;;;14.60;99.90;;;;;;5049639;28;20520;-71
2023/03/31 12:46:32;;;;;;;4.67;1.20;;;14.50;99.90;;;;;;5022623;28;20505;-71
2023/03/31 12:49:23;;;;;;;4.67;1.47;;;14.50;99.90;;;;;;5053429;28;20449;-71
2023/03/31 12:52:10;;;;;;;3.37;1.60;;;14.60;99.90;;;;;;5025642;28;20501;-71
2023/03/31 12:55:01;;;;;;;7.40;1.40;;;14.70;99.90;;;;;;5046399;28;20474;-71
2023/03/31 12:57:27;;;;;;;1.43;1.13;;;14.50;99.90;;;;;;5028309;28;20454;-71
2023/03/31 13:00:15;;;;;;;0.93;0.77;;;14.10;99.90;;;;;;5007657;28;20446;-72
2023/03/31 13:02:41;;;;;;;1.20;0.50;;;13.80;99.90;;;;;;5027007;28;20614;-71
2023/03/31 13:05:35;;;;;;;1.23;0.40;;;13.40;99.90;;;;;;5027887;28;20481;-71
2023/03/31 13:08:01;;;;;;;1.33;0.87;;;12.90;99.90;;;;;;5026354;28;20492;-71
2023/03/31 13:10:29;;;;;;;0.73;0.73;;;12.60;99.90;;;;;;5015372;28;20485;-71